Nearby METAR Reports

 

KEWB - New Bedford, Massachusetts, USA
Distance from station: ESE 9mi, 15km
Updated: Fri, 05-Mar-2021 7:53am EST
Clear
Clear
 Wind from WNW
Wind: WNW 16 mph , 26 km/h, Gust: 23 mph , 37 km/h
Temperature: 27°F , -3°C
Wind Chill: 15°F , -9°C
Dew Point: -0°F , -18°C
Humidity: 31%
Barometer: 29.74 inHg , 1007.1 hPa
Clouds: Clear
Visibility: 10 miles , 16 km
2021/03/05 12:53 KEWB 051253Z 29014G20KT 10SM CLR M03/M18 A2974 RMK AO2 SLP072 T10331183
KTAN - Taunton, Massachusetts, USA
Distance from station: NNE 11mi, 18km
Updated: Fri, 05-Mar-2021 7:52am EST
Clear
Clear
 Wind from W
Wind: W 10 mph , 17 km/h, Gust: 18 mph , 30 km/h
Temperature: 27°F , -3°C
Wind Chill: 18°F , -8°C
Dew Point: -2°F , -19°C
Humidity: 28%
Barometer: 29.74 inHg , 1007.1 hPa
Clouds: Clear
Visibility: 10 miles , 16 km
2021/03/05 12:52 KTAN 051252Z AUTO 28009G16KT 250V320 10SM CLR M03/M19 A2974 RMK AO2 SLP071 T10331189
 
KPVD - Providence/Green, Rhode Island, USA
Distance from station: W 16mi, 26km
Updated: Fri, 05-Mar-2021 7:51am EST
Mostly cloudy
Mostly cloudy
 Wind from WNW
Wind: WNW 15 mph , 24 km/h, Gust: 23 mph , 37 km/h
Temperature: 27°F , -3°C
Wind Chill: 15°F , -9°C
Dew Point: -6°F , -21°C
Humidity: 24%
Barometer: 29.76 inHg , 1007.8 hPa
Clouds: Mostly cloudy
Visibility: 10 miles , 16 km
Cloud details: Few Clouds 9500 ft
Partly cloudy 10000 ft
Mostly cloudy 30000 ft
2021/03/05 12:51 KPVD 051251Z 30013G20KT 10SM FEW095 SCT100 BKN300 M03/M21 A2976 RMK AO2 SLP078 T10331206
KUUU - Newport, Rhode Island, USA
Distance from station: SSW 16mi, 27km
Updated: Fri, 05-Mar-2021 7:53am EST
Few Clouds
Few Clouds
 Wind from WNW
Wind: WNW 17 mph , 28 km/h, Gust: 25 mph , 41 km/h
Temperature: 25°F , -4°C
Wind Chill: 12°F , -11°C
Dew Point: -4°F , -20°C
Humidity: 28%
Barometer: 29.75 inHg , 1007.5 hPa
Clouds: Few Clouds
Visibility: 10 miles , 16 km
Cloud details: Few Clouds 12000 ft
2021/03/05 12:53 KUUU 051253Z AUTO 30015G22KT 10SM FEW120 M04/M20 A2975 RMK AO2 SLP075 T10391200
 
KOQU - N. Kingston/Quon, Rhode Island, USA
Distance from station: WSW 18mi, 29km
Updated: Fri, 05-Mar-2021 7:50am EST
Partly cloudy
Partly cloudy
 Wind from NW
Wind: NW 17 mph , 28 km/h
Temperature: 27°F , -3°C
Wind Chill: 14°F , -10°C
Dew Point: -6°F , -21°C
Humidity: 24%
Barometer: 29.76 inHg , 1007.8 hPa
Clouds: Partly cloudy
Visibility: 10 miles , 16 km
Cloud details: Partly cloudy 9000 ft
2021/03/05 12:50 KOQU 051250Z 31015KT 10SM SCT090 M03/M21 A2976
KPYM - Plymouth, Massachusetts, USA
Distance from station: ENE 23mi, 37km
Updated: Fri, 05-Mar-2021 7:52am EST
Clear
Clear
 Wind from WNW
Wind: WNW 15 mph , 24 km/h, Gust: 25 mph , 41 km/h
Temperature: 25°F , -4°C
Wind Chill: 13°F , -11°C
Dew Point: 3°F , -16°C
Humidity: 39%
Barometer: 29.72 inHg , 1006.4 hPa
Clouds: Clear
Visibility: 10 miles , 16 km
2021/03/05 12:52 KPYM 051252Z AUTO 29013G22KT 10SM CLR M04/M16 A2972 RMK AO2 SLP065 T10441156
 
KSFZ - Pawtucket, Rhode Island, USA
Distance from station: WNW 23mi, 38km
Updated: Fri, 05-Mar-2021 7:56am EST
Clear
Clear
 Wind from WNW
Wind: WNW 9 mph , 15 km/h, Gust: 23 mph , 37 km/h
Temperature: 23°F , -5°C
Wind Chill: 13°F , -11°C
Dew Point: -0°F , -18°C
Humidity: 36%
Barometer: 29.73 inHg , 1006.8 hPa
Clouds: Clear
Visibility: 10 miles , 16 km
2021/03/05 12:56 KSFZ 051256Z AUTO 30008G20KT 10SM CLR M05/M18 A2973 RMK AO2 SLP019 T10501183 FZRANO $
KOWD - Norwood, Massachusetts, USA
Distance from station: N 31mi, 50km
Updated: Fri, 05-Mar-2021 7:53am EST
Overcast
Overcast
 Wind from WNW
Wind: WNW 14 mph , 22 km/h, Gust: 23 mph , 37 km/h
Temperature: 25°F , -4°C
Wind Chill: 13°F , -11°C
Dew Point: -0°F , -18°C
Humidity: 33%
Barometer: 29.75 inHg , 1007.5 hPa
Clouds: Overcast
Visibility: 10 miles , 16 km
Cloud details: Overcast 10000 ft
2021/03/05 12:53 KOWD 051253Z 30012G20KT 10SM OVC100 M04/M18 A2975 RMK AO2 SLP073 T10441183
 
KFMH - Falmouth/Otis Ab, Massachusetts, USA
Distance from station: ESE 32mi, 51km
Updated: Fri, 05-Mar-2021 7:45am EST
Few Clouds
Few Clouds
 Wind from WNW
Wind: WNW 12 mph , 19 km/h
Temperature: 25°F , -4°C
Wind Chill: 14°F , -10°C
Dew Point: 7°F , -14°C
Humidity: 46%
Barometer: 29.72 inHg , 1006.4 hPa
Clouds: Few Clouds
Visibility: 10 miles , 16 km
Cloud details: Few Clouds 11000 ft
2021/03/05 12:45 KFMH 051245Z 30010KT 10SM FEW110 M04/M14 A2972
KMQE - East Milton, Massachusetts, USA
Distance from station: N 33mi, 53km
Updated: Fri, 05-Mar-2021 7:51am EST

 Wind from W
Wind: W 14 mph , 22 km/h, Gust: 21 mph , 33 km/h
Temperature: 19°F , -7°C
Wind Chill: 5°F , -15°C
Dew Point: 3°F , -16°C
Humidity: 49%
Barometer: 29.68 inHg , 1005.1 hPa
2021/03/05 12:51 KMQE 051251Z AUTO 28012G18KT M07/M16 A2968 RMK AO1 SLP069 T10671161
 
KGHG - Marshfield, Massachusetts, USA
Distance from station: NE 34mi, 55km
Updated: Fri, 05-Mar-2021 8:15am EST
Clear
Clear
 Wind from WNW
Wind: WNW 13 mph , 20 km/h, Gust: 20 mph , 31 km/h
Temperature: 27°F , -3°C
Wind Chill: 16°F , -9°C
Dew Point: 3°F , -16°C
Humidity: 36%
Barometer: 29.72 inHg , 1006.4 hPa
Clouds: Clear
Visibility: 10 miles , 16 km
2021/03/05 13:15 KGHG 051315Z AUTO 29011G17KT 250V330 10SM CLR M03/M16 A2972 RMK AO2
KMVY - Marthas Vineyard, Massachusetts, USA
Distance from station: SE 35mi, 56km
Updated: Fri, 05-Mar-2021 7:53am EST
Clear
Clear
 Wind from WNW
Wind: WNW 13 mph , 20 km/h, Gust: 23 mph , 37 km/h
Temperature: 27°F , -3°C
Wind Chill: 16°F , -9°C
Dew Point: 9°F , -13°C
Humidity: 46%
Barometer: 29.74 inHg , 1007.1 hPa
Clouds: Clear
Visibility: 10 miles , 16 km
2021/03/05 12:53 KMVY 051253Z 29011G20KT 10SM CLR M03/M13 A2974 RMK AO2 SLP071 T10281128
 
KBOS - Boston, Massachusetts, USA
Distance from station: N 44mi, 71km
Updated: Fri, 05-Mar-2021 7:54am EST
Mostly cloudy
Mostly cloudy
 Wind from WNW
Wind: WNW 18 mph , 30 km/h, Gust: 28 mph , 44 km/h
Temperature: 25°F , -4°C
Wind Chill: 11°F , -12°C
Dew Point: -0°F , -18°C
Humidity: 33%
Barometer: 29.74 inHg , 1007.1 hPa
Clouds: Mostly cloudy
Visibility: 10 miles , 16 km
Cloud details: Few Clouds 5000 ft
Mostly cloudy 11000 ft
Mostly cloudy 20000 ft
2021/03/05 12:54 KBOS 051254Z 30016G24KT 10SM FEW050 BKN110 BKN200 M04/M18 A2974 RMK AO2 SLP069 T10391178
KHYA - Hyannis, Massachusetts, USA
Distance from station: E 44mi, 71km
Updated: Fri, 05-Mar-2021 7:56am EST
Few Clouds
Few Clouds
 Wind from varies
Wind: varies 7 mph , 11 km/h, Gust: 17 mph , 28 km/h
Temperature: 27°F , -3°C
Wind Chill: 19°F , -7°C
Dew Point: 7°F , -14°C
Humidity: 43%
Barometer: 29.70 inHg , 1005.8 hPa
Clouds: Few Clouds
Visibility: 10 miles , 16 km
Cloud details: Few Clouds 11000 ft
2021/03/05 12:56 KHYA 051256Z VRB06G15KT 10SM FEW110 M03/M14 A2970 RMK AO2 SLP060 T10331139
 
KWST - Westerly, Rhode Island, USA
Distance from station: SW 44mi, 71km
Updated: Fri, 05-Mar-2021 7:53am EST
Clear
Clear
 Wind from NW
Wind: NW 8 mph , 13 km/h, Gust: 17 mph , 28 km/h
Temperature: 23°F , -5°C
Wind Chill: 14°F , -10°C
Dew Point: -6°F , -21°C
Humidity: 28%
Barometer: 29.79 inHg , 1008.8 hPa
Clouds: Clear
Visibility: 10 miles , 16 km
2021/03/05 12:53 KWST 051253Z AUTO 31007G15KT 10SM CLR M05/M21 A2979 RMK AO2 SLP088 T10501206
KBID - Block Island, Rhode Island, USA
Distance from station: SSW 46mi, 74km
Updated: Fri, 05-Mar-2021 7:56am EST
Few Clouds
Few Clouds
 Wind from WNW
Wind: WNW 17 mph , 28 km/h, Gust: 26 mph , 43 km/h
Temperature: 25°F , -4°C
Wind Chill: 12°F , -11°C
Dew Point: 1°F , -17°C
Humidity: 36%
Barometer: 29.80 inHg , 1009.1 hPa
Clouds: Few Clouds
Visibility: 10 miles , 16 km
Cloud details: Few Clouds 12000 ft
2021/03/05 12:56 KBID 051256Z AUTO 30015G23KT 10SM FEW120 M04/M17 A2980 RMK AO2 SLP092 T10391167 FZRANO